createdAt,value
2023-04-01T00:01:51.346Z,43.73
2023-04-01T00:04:18.915Z,42.98
2023-04-01T00:06:46.000Z,41.45
2023-04-01T00:09:14.021Z,40.30
2023-04-01T00:11:41.215Z,39.71
2023-04-01T00:14:08.800Z,37.62
2023-04-01T00:16:35.843Z,37.37
2023-04-01T00:19:03.350Z,36.20
2023-04-01T00:21:30.839Z,36.31
2023-04-01T00:23:58.499Z,35.94
2023-04-01T00:26:26.003Z,35.35
2023-04-01T00:28:53.464Z,34.71
2023-04-01T00:31:21.684Z,32.92
2023-04-01T00:33:49.310Z,33.04
2023-04-01T00:36:18.609Z,31.67
2023-04-01T00:38:46.630Z,31.29
2023-04-01T00:41:16.212Z,30.74
2023-04-01T00:43:45.380Z,30.47
2023-04-01T00:46:13.071Z,31.00
2023-04-01T00:48:46.734Z,31.86
2023-04-01T00:51:18.749Z,32.38
2023-04-01T00:53:48.301Z,31.74
2023-04-01T00:56:21.785Z,30.38
2023-04-01T00:58:55.881Z,29.73
2023-04-01T01:01:23.434Z,29.36
2023-04-01T01:03:50.933Z,29.51
2023-04-01T01:06:40.074Z,29.33
2023-04-01T01:09:41.412Z,29.83
2023-04-01T01:12:26.894Z,29.04
2023-04-01T01:15:15.194Z,28.46
2023-04-01T01:17:54.950Z,28.35
2023-04-01T01:20:59.660Z,27.54
2023-04-01T01:24:05.545Z,26.55
2023-04-01T01:26:52.988Z,26.70
2023-04-01T01:30:02.199Z,26.56
2023-04-01T01:32:38.590Z,26.76
2023-04-01T01:35:24.010Z,25.59
2023-04-01T01:38:07.396Z,23.92
2023-04-01T01:40:34.583Z,24.20
2023-04-01T01:43:06.259Z,25.02
2023-04-01T01:45:35.534Z,25.33
2023-04-01T01:48:04.081Z,24.71
2023-04-01T01:50:31.754Z,23.59
2023-04-01T01:53:04.678Z,24.26
2023-04-01T01:55:34.319Z,24.71
2023-04-01T01:58:08.989Z,23.07
2023-04-01T02:00:39.346Z,21.39
2023-04-01T02:03:06.849Z,20.75
2023-04-01T02:05:34.679Z,21.14
2023-04-01T02:08:39.126Z,22.61
2023-04-01T02:11:10.516Z,23.09
2023-04-01T02:13:47.719Z,24.01
2023-04-01T02:16:27.707Z,22.06
2023-04-01T02:18:55.356Z,21.86
2023-04-01T02:21:24.066Z,21.84
2023-04-01T02:23:51.399Z,22.58
2023-04-01T02:26:18.467Z,22.59
2023-04-01T02:28:45.918Z,21.40
2023-04-01T02:31:13.310Z,23.85
2023-04-01T02:33:40.907Z,25.06
2023-04-01T02:36:12.222Z,25.42
2023-04-01T02:38:39.736Z,25.57
2023-04-01T02:41:07.482Z,25.00
2023-04-01T02:43:34.983Z,25.41
2023-04-01T02:46:02.636Z,24.11
2023-04-01T02:48:30.126Z,23.11
2023-04-01T02:50:57.497Z,23.01
2023-04-01T02:53:25.191Z,22.83
2023-04-01T02:55:53.102Z,23.65
2023-04-01T02:58:20.459Z,24.25
2023-04-01T03:00:47.984Z,23.74
2023-04-01T03:03:15.563Z,21.73
2023-04-01T03:05:43.161Z,22.62
2023-04-01T03:08:11.259Z,24.17
2023-04-01T03:10:38.863Z,24.30
2023-04-01T03:13:06.953Z,24.59
2023-04-01T03:15:35.443Z,23.96
2023-04-01T03:18:04.196Z,24.52
2023-04-01T03:20:32.484Z,24.38
2023-04-01T03:22:59.540Z,25.02
2023-04-01T03:25:29.416Z,24.99
2023-04-01T03:27:56.801Z,25.10
2023-04-01T03:30:24.519Z,24.58
2023-04-01T03:32:51.875Z,24.55
2023-04-01T03:35:19.044Z,24.47
2023-04-01T03:37:46.693Z,24.72
2023-04-01T03:40:14.137Z,25.17
2023-04-01T03:42:41.942Z,25.93
2023-04-01T03:45:09.969Z,25.90
2023-04-01T03:47:37.099Z,25.72
2023-04-01T03:50:05.487Z,25.28
2023-04-01T03:52:33.087Z,24.97
2023-04-01T03:55:00.537Z,24.90
2023-04-01T03:57:28.277Z,23.42
2023-04-01T04:00:00.583Z,23.80
2023-04-01T04:02:27.904Z,24.18
2023-04-01T04:04:55.650Z,24.48
2023-04-01T04:07:23.076Z,24.22
2023-04-01T04:10:09.644Z,24.71
2023-04-01T04:12:37.326Z,24.96
2023-04-01T04:15:05.369Z,26.24
2023-04-01T04:17:32.648Z,26.21
2023-04-01T04:20:00.191Z,26.84
2023-04-01T04:22:27.948Z,25.42
2023-04-01T04:24:55.749Z,23.21
2023-04-01T04:27:23.039Z,23.69
2023-04-01T04:30:09.071Z,23.65
2023-04-01T04:32:37.913Z,24.30
2023-04-01T04:35:07.370Z,24.80
2023-04-01T04:37:35.107Z,25.66
2023-04-01T04:40:02.545Z,26.68
2023-04-01T04:42:31.001Z,27.22
2023-04-01T04:45:04.362Z,27.35
2023-04-01T04:47:32.595Z,27.07
2023-04-01T04:49:59.700Z,27.41
2023-04-01T04:52:27.168Z,27.67
2023-04-01T04:54:54.298Z,27.83
2023-04-01T04:57:21.950Z,28.82
2023-04-01T04:59:55.321Z,28.80
2023-04-01T05:02:38.879Z,28.94
2023-04-01T05:05:06.947Z,27.18
2023-04-01T05:07:34.385Z,27.57
2023-04-01T05:10:01.752Z,27.68
2023-04-01T05:12:29.289Z,27.04
2023-04-01T05:15:01.879Z,27.51
2023-04-01T05:17:30.011Z,28.15
2023-04-01T05:19:58.499Z,29.37
2023-04-01T05:22:26.922Z,29.39
2023-04-01T05:24:54.533Z,29.24
2023-04-01T05:27:22.449Z,27.85
2023-04-01T05:29:50.225Z,27.55
2023-04-01T05:32:37.799Z,27.97
2023-04-01T05:35:05.527Z,29.27
2023-04-01T05:37:37.809Z,29.71
2023-04-01T05:40:06.342Z,27.76
2023-04-01T05:42:36.109Z,27.68
2023-04-01T05:45:05.419Z,27.49
2023-04-01T05:47:51.635Z,26.12
2023-04-01T05:50:19.925Z,26.33
2023-04-01T05:52:47.412Z,26.09
2023-04-01T05:55:15.203Z,26.55
2023-04-01T05:57:42.857Z,25.39
2023-04-01T06:00:10.682Z,25.00
2023-04-01T06:02:43.346Z,25.08
2023-04-01T06:05:18.185Z,25.61
2023-04-01T06:07:45.653Z,26.27
2023-04-01T06:10:18.515Z,26.50
2023-04-01T06:13:16.685Z,26.68
2023-04-01T06:15:48.081Z,26.35
2023-04-01T06:18:29.945Z,26.03
2023-04-01T06:21:28.000Z,24.81
2023-04-01T06:24:24.903Z,25.01
2023-04-01T06:27:04.885Z,26.08
2023-04-01T06:29:51.840Z,26.73
2023-04-01T06:32:28.282Z,27.04
2023-04-01T06:35:09.247Z,27.33
2023-04-01T06:37:58.024Z,28.09
2023-04-01T06:40:46.956Z,28.20
2023-04-01T06:43:23.152Z,27.62
2023-04-01T06:46:55.669Z,28.76
2023-04-01T06:50:13.033Z,29.16
2023-04-01T06:53:19.310Z,29.15
2023-04-01T06:56:19.711Z,28.29
2023-04-01T06:59:42.787Z,26.64
2023-04-01T07:02:39.595Z,26.72
2023-04-01T07:05:07.036Z,25.95
2023-04-01T07:07:54.704Z,24.48
2023-04-01T07:10:41.324Z,23.54
2023-04-01T07:13:36.419Z,24.00
2023-04-01T07:16:20.848Z,25.67
2023-04-01T07:18:51.593Z,25.75
2023-04-01T07:21:48.646Z,25.27
2023-04-01T07:24:32.670Z,24.95
2023-04-01T07:27:06.716Z,25.70
2023-04-01T07:29:36.434Z,26.55
2023-04-01T07:32:07.490Z,26.44
2023-04-01T07:34:59.990Z,27.42
2023-04-01T07:37:48.774Z,26.84
2023-04-01T07:40:30.083Z,27.25
2023-04-01T07:43:28.612Z,27.05
2023-04-01T07:46:23.749Z,27.67
2023-04-01T07:48:53.990Z,27.28
2023-04-01T07:51:37.052Z,26.96
2023-04-01T07:54:16.805Z,27.76
2023-04-01T07:56:59.566Z,27.84
2023-04-01T07:59:57.696Z,28.24
2023-04-01T08:02:35.250Z,28.29
2023-04-01T08:05:31.790Z,27.90
2023-04-01T08:08:35.368Z,27.32
2023-04-01T08:11:23.538Z,26.08
2023-04-01T08:14:27.785Z,26.57
2023-04-01T08:17:36.368Z,28.27
2023-04-01T08:20:33.258Z,29.14
2023-04-01T08:23:11.246Z,29.40
2023-04-01T08:25:48.368Z,28.11
2023-04-01T08:28:26.526Z,28.21
2023-04-01T08:31:24.438Z,28.88
2023-04-01T08:33:51.577Z,28.69
2023-04-01T08:36:25.628Z,27.80
2023-04-01T08:39:37.684Z,27.11
2023-04-01T08:42:23.815Z,27.42
2023-04-01T08:45:15.171Z,28.10
2023-04-01T08:48:12.597Z,27.83
2023-04-01T08:51:05.339Z,27.20
2023-04-01T08:54:14.231Z,26.31
2023-04-01T08:57:04.496Z,27.03
2023-04-01T08:59:51.798Z,27.43
2023-04-01T09:02:51.053Z,27.13
2023-04-01T09:05:37.553Z,27.19
2023-04-01T09:08:30.284Z,27.98
2023-04-01T09:11:18.681Z,27.79
2023-04-01T09:14:22.798Z,27.95
2023-04-01T09:17:26.927Z,26.79
2023-04-01T09:20:13.467Z,26.83
2023-04-01T09:23:10.473Z,24.98
2023-04-01T09:25:56.122Z,24.91
2023-04-01T09:28:41.792Z,25.54
2023-04-01T09:31:49.040Z,25.61
2023-04-01T09:34:54.314Z,26.42
2023-04-01T09:37:48.078Z,28.72
2023-04-01T09:40:42.053Z,28.97
2023-04-01T09:43:40.863Z,28.90
2023-04-01T09:46:24.766Z,29.10
2023-04-01T09:49:05.576Z,28.43
2023-04-01T09:52:02.151Z,28.15
2023-04-01T09:54:33.751Z,28.66
2023-04-01T09:57:03.735Z,28.23
2023-04-01T09:59:56.137Z,27.58
2023-04-01T10:03:03.870Z,26.66
2023-04-01T10:06:02.327Z,26.07
2023-04-01T10:09:07.004Z,28.98
2023-04-01T10:12:05.061Z,29.92
2023-04-01T10:15:01.184Z,30.96
2023-04-01T10:17:53.859Z,33.36
2023-04-01T10:20:39.670Z,34.51
2023-04-01T10:23:41.917Z,34.37
2023-04-01T10:26:34.788Z,33.85
2023-04-01T10:29:25.650Z,33.25
2023-04-01T10:32:31.973Z,32.55
2023-04-01T10:35:24.138Z,31.17
2023-04-01T10:38:06.418Z,31.27
2023-04-01T10:40:58.600Z,31.74
2023-04-01T10:44:05.719Z,31.95
2023-04-01T10:46:58.101Z,32.23
2023-04-01T10:49:57.196Z,31.32
2023-04-01T10:52:46.179Z,32.15
2023-04-01T10:56:03.797Z,32.42
2023-04-01T10:58:55.575Z,29.85
2023-04-01T11:02:11.315Z,30.07
2023-04-01T11:05:22.640Z,29.10
2023-04-01T11:08:27.247Z,29.30
2023-04-01T11:11:36.529Z,30.09
2023-04-01T11:14:23.873Z,31.45
2023-04-01T11:17:31.502Z,32.80
2023-04-01T11:20:07.786Z,33.69
2023-04-01T11:23:03.562Z,33.45
2023-04-01T11:25:49.687Z,35.62
2023-04-01T11:28:45.356Z,35.41
2023-04-01T11:31:27.030Z,34.64
2023-04-01T11:34:09.245Z,34.27
2023-04-01T11:37:02.301Z,33.08
2023-04-01T11:40:07.716Z,32.55
2023-04-01T11:43:51.900Z,33.03
2023-04-01T11:46:43.161Z,33.43
2023-04-01T11:49:45.578Z,33.49
2023-04-01T11:53:09.858Z,35.02
2023-04-01T11:55:52.100Z,35.54
2023-04-01T11:58:25.214Z,36.05
2023-04-01T12:01:04.766Z,37.05
2023-04-01T12:03:44.414Z,37.10
2023-04-01T12:06:36.007Z,37.34
2023-04-01T12:09:25.384Z,37.32
2023-04-01T12:12:07.567Z,37.75
2023-04-01T12:14:59.831Z,38.02
2023-04-01T12:17:27.251Z,38.57
2023-04-01T12:20:12.602Z,39.75
2023-04-01T12:22:58.983Z,39.78
2023-04-01T12:25:26.134Z,39.88
2023-04-01T12:28:19.140Z,40.35
2023-04-01T12:30:52.320Z,40.44
2023-04-01T12:33:38.602Z,41.24
2023-04-01T12:36:27.606Z,40.90
2023-04-01T12:39:23.785Z,40.84
2023-04-01T12:42:17.469Z,40.41
2023-04-01T12:45:12.656Z,40.81
2023-04-01T12:48:02.747Z,41.30
2023-04-01T12:50:42.378Z,41.57
2023-04-01T12:53:36.658Z,41.54
2023-04-01T12:56:04.551Z,41.98
2023-04-01T12:58:50.765Z,42.17
2023-04-01T13:01:30.580Z,41.53
2023-04-01T13:04:22.102Z,42.02
2023-04-01T13:07:02.666Z,42.08
2023-04-01T13:09:36.888Z,42.00
2023-04-01T13:12:25.804Z,42.24
2023-04-01T13:15:31.566Z,42.68
2023-04-01T13:18:07.959Z,43.31
2023-04-01T13:20:50.979Z,43.85
2023-04-01T13:23:41.764Z,43.73
2023-04-01T13:26:15.556Z,44.57
2023-04-01T13:29:05.079Z,44.19
2023-04-01T13:31:50.728Z,44.36
2023-04-01T13:34:23.862Z,44.37
2023-04-01T13:36:52.006Z,44.66
2023-04-01T13:39:44.416Z,44.24
2023-04-01T13:42:18.426Z,44.85
2023-04-01T13:45:01.094Z,44.85
2023-04-01T13:47:32.428Z,45.56
2023-04-01T13:50:24.719Z,45.90
2023-04-01T13:53:07.171Z,46.68
2023-04-01T13:55:49.411Z,46.46
2023-04-01T13:58:44.247Z,46.33
2023-04-01T14:01:43.338Z,47.79
2023-04-01T14:04:23.206Z,47.29
2023-04-01T14:07:02.093Z,47.74
2023-04-01T14:09:46.725Z,48.68
2023-04-01T14:12:39.072Z,48.24
2023-04-01T14:15:06.645Z,48.52
2023-04-01T14:17:55.689Z,48.76
2023-04-01T14:20:41.181Z,48.27
2023-04-01T14:23:49.627Z,47.86
2023-04-01T14:26:19.629Z,48.24
2023-04-01T14:29:05.137Z,48.52
2023-04-01T14:31:57.914Z,48.32
2023-04-01T14:34:56.455Z,48.45
2023-04-01T14:37:32.225Z,48.06
2023-04-01T14:40:30.139Z,48.46
2023-04-01T14:43:12.560Z,48.13
2023-04-01T14:45:46.290Z,48.92
2023-04-01T14:48:34.621Z,48.51
2023-04-01T14:51:27.332Z,49.10
2023-04-01T14:54:23.989Z,49.46
2023-04-01T14:57:12.851Z,50.10
2023-04-01T14:59:54.966Z,50.09
2023-04-01T15:02:30.566Z,51.09
2023-04-01T15:05:17.646Z,51.59
2023-04-01T15:08:10.685Z,50.62
2023-04-01T15:10:52.800Z,51.66
2023-04-01T15:13:42.948Z,51.43
2023-04-01T15:16:32.630Z,51.87
2023-04-01T15:19:37.775Z,52.43
2023-04-01T15:22:38.590Z,52.73
2023-04-01T15:25:43.046Z,52.78
2023-04-01T15:28:48.334Z,53.06
2023-04-01T15:31:21.534Z,52.40
2023-04-01T15:34:05.432Z,53.21
2023-04-01T15:36:58.277Z,52.78
2023-04-01T15:39:48.409Z,52.66
2023-04-01T15:42:31.382Z,52.60
2023-04-01T15:45:04.650Z,53.60
2023-04-01T15:47:36.228Z,53.85
2023-04-01T15:50:37.966Z,54.66
2023-04-01T15:53:26.928Z,53.94
2023-04-01T15:56:12.017Z,55.11
2023-04-01T15:58:47.188Z,54.76
2023-04-01T16:01:41.336Z,54.64
2023-04-01T16:04:22.534Z,54.19
2023-04-01T16:07:08.504Z,55.09
2023-04-01T16:09:38.886Z,53.99
2023-04-01T16:12:38.537Z,55.00
2023-04-01T16:15:24.096Z,54.28
2023-04-01T16:17:54.622Z,54.59
2023-04-01T16:20:51.452Z,54.17
2023-04-01T16:23:20.325Z,54.27
2023-04-01T16:25:56.262Z,53.82
2023-04-01T16:28:56.062Z,54.11
2023-04-01T16:31:43.345Z,53.92
2023-04-01T16:34:42.759Z,53.34
2023-04-01T16:37:43.667Z,53.54
2023-04-01T16:40:22.277Z,53.06
2023-04-01T16:43:29.556Z,53.07
2023-04-01T16:46:34.728Z,52.56
2023-04-01T16:49:02.386Z,53.79
2023-04-01T16:52:03.284Z,53.20
2023-04-01T16:54:54.350Z,53.24
2023-04-01T16:57:26.874Z,53.14
2023-04-01T17:00:19.448Z,53.25
2023-04-01T17:03:09.019Z,53.33
2023-04-01T17:05:42.000Z,53.07
2023-04-01T17:08:14.647Z,53.61
2023-04-01T17:11:12.882Z,53.81
2023-04-01T17:13:50.673Z,53.04
2023-04-01T17:16:29.122Z,52.90
2023-04-01T17:19:25.329Z,52.97
2023-04-01T17:22:43.233Z,52.76
2023-04-01T17:25:28.929Z,52.33
2023-04-01T17:28:05.459Z,52.40
2023-04-01T17:30:47.017Z,52.33
2023-04-01T17:33:37.248Z,52.85
2023-04-01T17:36:18.160Z,52.46
2023-04-01T17:39:07.379Z,51.70
2023-04-01T17:42:16.956Z,52.49
2023-04-01T17:45:10.116Z,52.19
2023-04-01T17:47:49.170Z,52.05
2023-04-01T17:50:53.850Z,52.07
2023-04-01T17:53:33.139Z,51.90
2023-04-01T17:56:19.402Z,52.11
2023-04-01T17:58:50.582Z,52.03
2023-04-01T18:01:26.853Z,52.18
2023-04-01T18:04:31.188Z,52.88
2023-04-01T18:07:26.194Z,53.15
2023-04-01T18:10:18.922Z,53.11
2023-04-01T18:13:01.822Z,52.73
2023-04-01T18:16:10.326Z,52.94
2023-04-01T18:18:49.921Z,51.89
2023-04-01T18:21:17.259Z,51.84
2023-04-01T18:24:01.774Z,51.85
2023-04-01T18:26:38.011Z,51.97
2023-04-01T18:29:23.209Z,52.13
2023-04-01T18:31:53.104Z,52.38
2023-04-01T18:35:03.894Z,52.02
2023-04-01T18:37:37.878Z,52.17
2023-04-01T18:40:33.426Z,52.21
2023-04-01T18:43:28.484Z,52.31
2023-04-01T18:46:01.100Z,51.90
2023-04-01T18:49:03.568Z,52.17
2023-04-01T18:51:46.649Z,52.79
2023-04-01T18:54:22.854Z,51.81
2023-04-01T18:56:50.376Z,52.42
2023-04-01T18:59:28.295Z,51.95
2023-04-01T19:02:04.542Z,52.16
2023-04-01T19:04:38.764Z,52.33
2023-04-01T19:07:43.240Z,52.55
2023-04-01T19:10:22.811Z,51.79
2023-04-01T19:12:59.350Z,52.32
2023-04-01T19:15:29.216Z,52.81
2023-04-01T19:18:20.808Z,52.61
2023-04-01T19:21:02.668Z,52.51
2023-04-01T19:23:51.675Z,52.51
2023-04-01T19:26:49.795Z,53.06
2023-04-01T19:29:36.608Z,53.08
2023-04-01T19:32:25.424Z,52.45
2023-04-01T19:34:55.275Z,52.44
2023-04-01T19:37:24.309Z,52.89
2023-04-01T19:40:03.744Z,53.37
2023-04-01T19:42:47.992Z,52.37
2023-04-01T19:45:15.380Z,52.58
2023-04-01T19:47:54.246Z,53.01
2023-04-01T19:50:39.880Z,52.86
2023-04-01T19:53:36.298Z,53.29
2023-04-01T19:56:22.648Z,52.93
2023-04-01T19:58:52.196Z,53.59
2023-04-01T20:01:44.335Z,53.17
2023-04-01T20:04:14.126Z,53.23
2023-04-01T20:07:12.381Z,53.93
2023-04-01T20:09:58.354Z,53.95
2023-04-01T20:12:46.972Z,53.39
2023-04-01T20:15:27.712Z,53.94
2023-04-01T20:17:55.590Z,53.68
2023-04-01T20:20:27.356Z,53.70
2023-04-01T20:23:12.533Z,53.82
2023-04-01T20:26:10.104Z,53.40
2023-04-01T20:28:49.321Z,54.10
2023-04-01T20:31:25.696Z,54.23
2023-04-01T20:34:12.881Z,53.89
2023-04-01T20:36:46.888Z,53.89
2023-04-01T20:39:40.864Z,53.07
2023-04-01T20:42:29.635Z,53.26
2023-04-01T20:45:05.672Z,53.71
2023-04-01T20:47:46.454Z,53.35
2023-04-01T20:50:21.355Z,53.71
2023-04-01T20:53:12.041Z,53.86
2023-04-01T20:55:49.128Z,52.88
2023-04-01T20:58:29.392Z,53.27
2023-04-01T21:01:02.255Z,52.61
2023-04-01T21:03:56.862Z,52.66
2023-04-01T21:06:38.180Z,52.70
2023-04-01T21:09:39.189Z,52.66
2023-04-01T21:12:20.754Z,52.45
2023-04-01T21:15:21.999Z,52.08
2023-04-01T21:18:19.726Z,52.84
2023-04-01T21:20:50.080Z,51.91
2023-04-01T21:23:36.211Z,51.86
2023-04-01T21:26:12.605Z,52.34
2023-04-01T21:28:58.065Z,51.80
2023-04-01T21:31:55.566Z,51.98
2023-04-01T21:34:56.353Z,51.90
2023-04-01T21:37:37.725Z,52.02
2023-04-01T21:40:16.851Z,51.92
2023-04-01T21:42:51.317Z,51.92
2023-04-01T21:45:59.928Z,52.09
2023-04-01T21:48:57.358Z,52.62
2023-04-01T21:51:44.613Z,52.11
2023-04-01T21:54:41.514Z,51.57
2023-04-01T21:57:40.310Z,52.44
2023-04-01T22:00:20.902Z,52.29
2023-04-01T22:03:26.824Z,51.97
2023-04-01T22:06:09.390Z,52.03
2023-04-01T22:08:42.561Z,52.50
2023-04-01T22:11:24.536Z,52.14
2023-04-01T22:14:01.966Z,52.28
2023-04-01T22:16:47.389Z,52.19
2023-04-01T22:19:26.073Z,51.95
2023-04-01T22:22:05.242Z,51.99
2023-04-01T22:25:03.365Z,52.18
2023-04-01T22:27:46.103Z,52.23
2023-04-01T22:30:16.601Z,52.81
2023-04-01T22:33:03.159Z,52.39
2023-04-01T22:35:40.471Z,52.03
2023-04-01T22:38:36.292Z,52.40
2023-04-01T22:41:16.290Z,52.52
2023-04-01T22:43:44.714Z,52.57
2023-04-01T22:46:25.313Z,51.92
2023-04-01T22:49:17.205Z,52.08
2023-04-01T22:51:54.448Z,52.17
2023-04-01T22:54:33.514Z,52.45
2023-04-01T22:57:05.615Z,52.79
2023-04-01T22:59:43.401Z,53.02
2023-04-01T23:02:12.999Z,52.91
2023-04-01T23:04:42.095Z,53.07
2023-04-01T23:07:47.545Z,52.98
2023-04-01T23:10:30.447Z,53.06
2023-04-01T23:12:59.177Z,53.10
2023-04-01T23:15:26.949Z,53.12
2023-04-01T23:18:20.423Z,53.37
2023-04-01T23:20:53.513Z,53.42
2023-04-01T23:23:20.762Z,53.43
2023-04-01T23:26:26.166Z,53.54
2023-04-01T23:28:55.430Z,53.61
2023-04-01T23:31:45.746Z,54.32
2023-04-01T23:34:13.107Z,53.79
2023-04-01T23:36:50.697Z,54.68
2023-04-01T23:39:28.150Z,54.62
2023-04-01T23:42:23.545Z,54.50
2023-04-01T23:44:52.781Z,54.62
2023-04-01T23:47:22.736Z,54.49
2023-04-01T23:49:53.291Z,53.41
2023-04-01T23:52:44.709Z,51.92
2023-04-01T23:55:11.894Z,51.22
2023-04-01T23:57:39.086Z,49.62
